sensor_id;sensor_type;location;lat;lon;timestamp;P1;durP1;ratioP1;P2;durP2;ratioP2
19969;SDS011;10146;47.754;9.566;2023-06-14T00:01:17;4.57;;;3.60;;
19969;SDS011;10146;47.754;9.566;2023-06-14T00:03:45;5.25;;;3.72;;
19969;SDS011;10146;47.754;9.566;2023-06-14T00:06:12;4.05;;;3.75;;
19969;SDS011;10146;47.754;9.566;2023-06-14T00:08:38;4.50;;;3.67;;
19969;SDS011;10146;47.754;9.566;2023-06-14T00:11:05;4.80;;;3.55;;
19969;SDS011;10146;47.754;9.566;2023-06-14T00:13:30;3.58;;;3.28;;
19969;SDS011;10146;47.754;9.566;2023-06-14T00:15:56;5.70;;;3.72;;
19969;SDS011;10146;47.754;9.566;2023-06-14T00:18:22;6.13;;;3.88;;
19969;SDS011;10146;47.754;9.566;2023-06-14T00:20:54;5.57;;;3.40;;
19969;SDS011;10146;47.754;9.566;2023-06-14T00:23:20;4.43;;;3.80;;
19969;SDS011;10146;47.754;9.566;2023-06-14T00:25:46;4.28;;;3.22;;
19969;SDS011;10146;47.754;9.566;2023-06-14T00:28:11;5.93;;;3.45;;
19969;SDS011;10146;47.754;9.566;2023-06-14T00:30:37;3.53;;;3.17;;
19969;SDS011;10146;47.754;9.566;2023-06-14T00:33:03;4.07;;;3.40;;
19969;SDS011;10146;47.754;9.566;2023-06-14T00:35:29;3.95;;;3.17;;
19969;SDS011;10146;47.754;9.566;2023-06-14T00:37:54;5.03;;;3.65;;
19969;SDS011;10146;47.754;9.566;2023-06-14T00:40:20;6.00;;;3.67;;
19969;SDS011;10146;47.754;9.566;2023-06-14T00:42:46;4.45;;;3.33;;
19969;SDS011;10146;47.754;9.566;2023-06-14T00:45:12;4.38;;;3.50;;
19969;SDS011;10146;47.754;9.566;2023-06-14T00:47:38;4.85;;;3.83;;
19969;SDS011;10146;47.754;9.566;2023-06-14T00:50:06;4.97;;;3.42;;
19969;SDS011;10146;47.754;9.566;2023-06-14T00:52:33;4.05;;;3.65;;
19969;SDS011;10146;47.754;9.566;2023-06-14T00:54:59;3.90;;;3.60;;
19969;SDS011;10146;47.754;9.566;2023-06-14T00:57:26;6.95;;;3.72;;
19969;SDS011;10146;47.754;9.566;2023-06-14T00:59:52;7.32;;;3.55;;
19969;SDS011;10146;47.754;9.566;2023-06-14T01:02:19;4.43;;;3.55;;
19969;SDS011;10146;47.754;9.566;2023-06-14T01:04:45;4.45;;;4.05;;
19969;SDS011;10146;47.754;9.566;2023-06-14T01:07:18;5.68;;;3.60;;
19969;SDS011;10146;47.754;9.566;2023-06-14T01:14:46;3.65;;;3.35;;
19969;SDS011;10146;47.754;9.566;2023-06-14T01:17:14;4.72;;;3.72;;
19969;SDS011;10146;47.754;9.566;2023-06-14T01:19:43;4.40;;;3.45;;
19969;SDS011;10146;47.754;9.566;2023-06-14T01:22:09;5.78;;;3.65;;
19969;SDS011;10146;47.754;9.566;2023-06-14T01:24:35;3.92;;;3.25;;
19969;SDS011;10146;47.754;9.566;2023-06-14T01:27:01;4.43;;;3.55;;
19969;SDS011;10146;47.754;9.566;2023-06-14T01:29:28;3.70;;;3.40;;
19969;SDS011;10146;47.754;9.566;2023-06-14T01:31:58;4.72;;;4.32;;
19969;SDS011;10146;47.754;9.566;2023-06-14T01:34:24;6.88;;;4.55;;
19969;SDS011;10146;47.754;9.566;2023-06-14T01:36:50;5.10;;;3.65;;
19969;SDS011;10146;47.754;9.566;2023-06-14T01:39:20;4.15;;;3.65;;
19969;SDS011;10146;47.754;9.566;2023-06-14T01:41:47;4.10;;;3.67;;
19969;SDS011;10146;47.754;9.566;2023-06-14T01:44:16;6.50;;;3.80;;
19969;SDS011;10146;47.754;9.566;2023-06-14T01:46:44;4.32;;;3.92;;
19969;SDS011;10146;47.754;9.566;2023-06-14T01:49:10;3.88;;;3.40;;
19969;SDS011;10146;47.754;9.566;2023-06-14T01:51:36;3.85;;;3.50;;
19969;SDS011;10146;47.754;9.566;2023-06-14T01:54:02;3.78;;;3.40;;
19969;SDS011;10146;47.754;9.566;2023-06-14T01:56:28;5.20;;;3.67;;
19969;SDS011;10146;47.754;9.566;2023-06-14T01:58:53;4.13;;;3.63;;
19969;SDS011;10146;47.754;9.566;2023-06-14T02:01:19;4.13;;;3.42;;
19969;SDS011;10146;47.754;9.566;2023-06-14T02:03:46;4.53;;;3.47;;
19969;SDS011;10146;47.754;9.566;2023-06-14T02:06:13;3.97;;;3.42;;
19969;SDS011;10146;47.754;9.566;2023-06-14T02:08:40;4.03;;;3.63;;
19969;SDS011;10146;47.754;9.566;2023-06-14T02:11:06;3.70;;;3.40;;
19969;SDS011;10146;47.754;9.566;2023-06-14T02:13:32;4.90;;;3.75;;
19969;SDS011;10146;47.754;9.566;2023-06-14T02:15:58;4.10;;;3.40;;
19969;SDS011;10146;47.754;9.566;2023-06-14T02:18:24;5.55;;;3.70;;
19969;SDS011;10146;47.754;9.566;2023-06-14T02:20:50;3.80;;;3.50;;
19969;SDS011;10146;47.754;9.566;2023-06-14T02:23:15;5.50;;;3.50;;
19969;SDS011;10146;47.754;9.566;2023-06-14T02:25:41;5.88;;;3.70;;
19969;SDS011;10146;47.754;9.566;2023-06-14T02:28:08;5.18;;;3.65;;
19969;SDS011;10146;47.754;9.566;2023-06-14T02:30:33;4.22;;;3.70;;
19969;SDS011;10146;47.754;9.566;2023-06-14T02:32:59;5.30;;;3.95;;
19969;SDS011;10146;47.754;9.566;2023-06-14T02:35:25;5.05;;;3.83;;
19969;SDS011;10146;47.754;9.566;2023-06-14T02:37:52;5.95;;;3.90;;
19969;SDS011;10146;47.754;9.566;2023-06-14T02:40:18;4.10;;;3.60;;
19969;SDS011;10146;47.754;9.566;2023-06-14T02:42:44;6.63;;;3.58;;
19969;SDS011;10146;47.754;9.566;2023-06-14T02:45:10;4.10;;;3.65;;
19969;SDS011;10146;47.754;9.566;2023-06-14T02:47:35;4.10;;;3.70;;
19969;SDS011;10146;47.754;9.566;2023-06-14T02:50:01;4.35;;;3.95;;
19969;SDS011;10146;47.754;9.566;2023-06-14T02:52:27;4.28;;;3.30;;
19969;SDS011;10146;47.754;9.566;2023-06-14T02:54:53;4.25;;;3.65;;
19969;SDS011;10146;47.754;9.566;2023-06-14T02:57:19;4.75;;;3.50;;
19969;SDS011;10146;47.754;9.566;2023-06-14T02:59:45;4.57;;;3.75;;
19969;SDS011;10146;47.754;9.566;2023-06-14T03:02:11;4.35;;;3.55;;
19969;SDS011;10146;47.754;9.566;2023-06-14T03:04:36;4.70;;;3.45;;
19969;SDS011;10146;47.754;9.566;2023-06-14T03:07:02;3.88;;;3.35;;
19969;SDS011;10146;47.754;9.566;2023-06-14T03:09:34;5.22;;;3.55;;
19969;SDS011;10146;47.754;9.566;2023-06-14T03:12:01;4.85;;;3.65;;
19969;SDS011;10146;47.754;9.566;2023-06-14T03:14:27;4.60;;;3.70;;
19969;SDS011;10146;47.754;9.566;2023-06-14T03:16:54;5.78;;;4.10;;
19969;SDS011;10146;47.754;9.566;2023-06-14T03:19:21;4.30;;;3.90;;
19969;SDS011;10146;47.754;9.566;2023-06-14T03:21:47;4.68;;;3.70;;
19969;SDS011;10146;47.754;9.566;2023-06-14T03:24:14;4.35;;;3.97;;
19969;SDS011;10146;47.754;9.566;2023-06-14T03:26:41;4.07;;;3.67;;
19969;SDS011;10146;47.754;9.566;2023-06-14T03:29:07;6.20;;;4.38;;
19969;SDS011;10146;47.754;9.566;2023-06-14T03:31:33;3.90;;;3.40;;
19969;SDS011;10146;47.754;9.566;2023-06-14T03:34:00;6.80;;;4.07;;
19969;SDS011;10146;47.754;9.566;2023-06-14T03:36:26;5.43;;;4.00;;
19969;SDS011;10146;47.754;9.566;2023-06-14T03:38:52;6.35;;;4.03;;
19969;SDS011;10146;47.754;9.566;2023-06-14T03:41:19;4.32;;;3.92;;
19969;SDS011;10146;47.754;9.566;2023-06-14T03:43:45;5.63;;;3.70;;
19969;SDS011;10146;47.754;9.566;2023-06-14T03:46:10;7.70;;;4.18;;
19969;SDS011;10146;47.754;9.566;2023-06-14T03:48:36;5.22;;;4.07;;
19969;SDS011;10146;47.754;9.566;2023-06-14T03:51:02;4.15;;;3.75;;
19969;SDS011;10146;47.754;9.566;2023-06-14T03:53:27;4.35;;;3.95;;
19969;SDS011;10146;47.754;9.566;2023-06-14T03:55:54;4.72;;;3.85;;
19969;SDS011;10146;47.754;9.566;2023-06-14T03:58:20;6.32;;;3.95;;
19969;SDS011;10146;47.754;9.566;2023-06-14T04:00:46;5.53;;;4.82;;
19969;SDS011;10146;47.754;9.566;2023-06-14T04:03:12;6.50;;;3.60;;
19969;SDS011;10146;47.754;9.566;2023-06-14T04:05:41;4.60;;;3.80;;
19969;SDS011;10146;47.754;9.566;2023-06-14T04:08:07;6.03;;;4.60;;
19969;SDS011;10146;47.754;9.566;2023-06-14T04:10:34;6.18;;;4.22;;
19969;SDS011;10146;47.754;9.566;2023-06-14T04:13:00;5.43;;;4.25;;
19969;SDS011;10146;47.754;9.566;2023-06-14T04:15:25;9.32;;;4.78;;
19969;SDS011;10146;47.754;9.566;2023-06-14T04:17:53;4.93;;;4.30;;
19969;SDS011;10146;47.754;9.566;2023-06-14T04:20:22;4.65;;;4.20;;
19969;SDS011;10146;47.754;9.566;2023-06-14T04:22:50;4.80;;;3.72;;
19969;SDS011;10146;47.754;9.566;2023-06-14T04:25:16;7.93;;;4.10;;
19969;SDS011;10146;47.754;9.566;2023-06-14T04:27:42;5.78;;;4.40;;
19969;SDS011;10146;47.754;9.566;2023-06-14T04:30:08;5.90;;;4.35;;
19969;SDS011;10146;47.754;9.566;2023-06-14T04:32:34;6.90;;;4.95;;
19969;SDS011;10146;47.754;9.566;2023-06-14T04:35:05;5.00;;;4.22;;
19969;SDS011;10146;47.754;9.566;2023-06-14T04:37:34;7.88;;;4.75;;
19969;SDS011;10146;47.754;9.566;2023-06-14T04:39:59;8.88;;;4.13;;
19969;SDS011;10146;47.754;9.566;2023-06-14T04:42:25;6.72;;;4.10;;
19969;SDS011;10146;47.754;9.566;2023-06-14T04:44:55;5.43;;;4.38;;
19969;SDS011;10146;47.754;9.566;2023-06-14T04:47:20;6.60;;;4.80;;
19969;SDS011;10146;47.754;9.566;2023-06-14T04:49:46;9.75;;;4.70;;
19969;SDS011;10146;47.754;9.566;2023-06-14T04:52:12;6.43;;;4.82;;
19969;SDS011;10146;47.754;9.566;2023-06-14T04:54:38;7.10;;;4.47;;
19969;SDS011;10146;47.754;9.566;2023-06-14T04:57:07;8.18;;;4.00;;
19969;SDS011;10146;47.754;9.566;2023-06-14T04:59:38;8.82;;;4.38;;
19969;SDS011;10146;47.754;9.566;2023-06-14T05:02:04;5.85;;;4.38;;
19969;SDS011;10146;47.754;9.566;2023-06-14T05:04:30;8.90;;;4.55;;
19969;SDS011;10146;47.754;9.566;2023-06-14T05:06:55;5.55;;;4.30;;
19969;SDS011;10146;47.754;9.566;2023-06-14T05:09:21;7.25;;;3.97;;
19969;SDS011;10146;47.754;9.566;2023-06-14T05:11:47;10.55;;;4.65;;
19969;SDS011;10146;47.754;9.566;2023-06-14T05:14:12;9.23;;;4.43;;
19969;SDS011;10146;47.754;9.566;2023-06-14T05:16:39;7.10;;;4.53;;
19969;SDS011;10146;47.754;9.566;2023-06-14T05:19:05;10.40;;;4.90;;
19969;SDS011;10146;47.754;9.566;2023-06-14T05:21:31;10.50;;;5.55;;
19969;SDS011;10146;47.754;9.566;2023-06-14T05:23:59;8.98;;;5.18;;
19969;SDS011;10146;47.754;9.566;2023-06-14T05:26:25;5.43;;;4.43;;
19969;SDS011;10146;47.754;9.566;2023-06-14T05:28:54;11.38;;;4.72;;
19969;SDS011;10146;47.754;9.566;2023-06-14T05:31:21;9.15;;;4.53;;
19969;SDS011;10146;47.754;9.566;2023-06-14T05:33:48;12.93;;;5.40;;
19969;SDS011;10146;47.754;9.566;2023-06-14T05:36:13;6.65;;;4.95;;
19969;SDS011;10146;47.754;9.566;2023-06-14T05:38:39;7.05;;;4.57;;
19969;SDS011;10146;47.754;9.566;2023-06-14T05:41:05;11.48;;;4.88;;
19969;SDS011;10146;47.754;9.566;2023-06-14T05:43:30;7.97;;;4.30;;
19969;SDS011;10146;47.754;9.566;2023-06-14T05:45:56;9.57;;;4.90;;
19969;SDS011;10146;47.754;9.566;2023-06-14T05:48:22;8.93;;;4.45;;
19969;SDS011;10146;47.754;9.566;2023-06-14T05:50:47;8.90;;;4.75;;
19969;SDS011;10146;47.754;9.566;2023-06-14T05:53:13;8.05;;;4.60;;
19969;SDS011;10146;47.754;9.566;2023-06-14T05:55:39;6.68;;;4.47;;
19969;SDS011;10146;47.754;9.566;2023-06-14T05:58:05;9.15;;;5.20;;
19969;SDS011;10146;47.754;9.566;2023-06-14T06:00:30;5.68;;;3.95;;
19969;SDS011;10146;47.754;9.566;2023-06-14T06:02:56;6.72;;;4.63;;
19969;SDS011;10146;47.754;9.566;2023-06-14T06:05:22;7.15;;;4.68;;
19969;SDS011;10146;47.754;9.566;2023-06-14T06:07:48;7.63;;;4.70;;
19969;SDS011;10146;47.754;9.566;2023-06-14T06:10:14;5.82;;;4.03;;
19969;SDS011;10146;47.754;9.566;2023-06-14T06:12:43;5.78;;;4.38;;
19969;SDS011;10146;47.754;9.566;2023-06-14T06:15:12;6.80;;;4.30;;
19969;SDS011;10146;47.754;9.566;2023-06-14T06:17:38;6.60;;;3.90;;
19969;SDS011;10146;47.754;9.566;2023-06-14T06:20:04;4.82;;;4.35;;
19969;SDS011;10146;47.754;9.566;2023-06-14T06:22:33;7.13;;;4.63;;
19969;SDS011;10146;47.754;9.566;2023-06-14T06:24:59;5.18;;;4.18;;
19969;SDS011;10146;47.754;9.566;2023-06-14T06:27:24;5.45;;;4.22;;
19969;SDS011;10146;47.754;9.566;2023-06-14T06:29:50;7.65;;;4.38;;
19969;SDS011;10146;47.754;9.566;2023-06-14T06:32:17;7.13;;;4.22;;
19969;SDS011;10146;47.754;9.566;2023-06-14T06:34:42;6.72;;;4.15;;
19969;SDS011;10146;47.754;9.566;2023-06-14T06:37:08;8.27;;;4.53;;
19969;SDS011;10146;47.754;9.566;2023-06-14T06:39:34;5.57;;;4.05;;
19969;SDS011;10146;47.754;9.566;2023-06-14T06:42:00;5.63;;;4.32;;
19969;SDS011;10146;47.754;9.566;2023-06-14T06:44:25;7.10;;;4.10;;
19969;SDS011;10146;47.754;9.566;2023-06-14T06:46:51;8.23;;;4.55;;
19969;SDS011;10146;47.754;9.566;2023-06-14T06:49:17;6.95;;;4.57;;
19969;SDS011;10146;47.754;9.566;2023-06-14T06:51:42;6.10;;;4.13;;
19969;SDS011;10146;47.754;9.566;2023-06-14T06:54:09;5.93;;;4.10;;
19969;SDS011;10146;47.754;9.566;2023-06-14T06:56:35;5.68;;;4.90;;
19969;SDS011;10146;47.754;9.566;2023-06-14T06:59:01;7.32;;;3.95;;
19969;SDS011;10146;47.754;9.566;2023-06-14T07:01:26;6.13;;;4.03;;
19969;SDS011;10146;47.754;9.566;2023-06-14T07:03:54;6.03;;;4.05;;
19969;SDS011;10146;47.754;9.566;2023-06-14T07:06:20;6.28;;;4.07;;
19969;SDS011;10146;47.754;9.566;2023-06-14T07:08:46;8.60;;;4.43;;
19969;SDS011;10146;47.754;9.566;2023-06-14T07:11:14;7.43;;;4.40;;
19969;SDS011;10146;47.754;9.566;2023-06-14T07:13:40;6.20;;;4.00;;
19969;SDS011;10146;47.754;9.566;2023-06-14T07:16:05;5.72;;;4.07;;
19969;SDS011;10146;47.754;9.566;2023-06-14T07:18:31;5.53;;;3.92;;
19969;SDS011;10146;47.754;9.566;2023-06-14T07:20:57;6.90;;;4.15;;
19969;SDS011;10146;47.754;9.566;2023-06-14T07:23:25;5.38;;;4.22;;
19969;SDS011;10146;47.754;9.566;2023-06-14T07:25:51;5.95;;;4.00;;
19969;SDS011;10146;47.754;9.566;2023-06-14T07:28:17;5.45;;;3.92;;
19969;SDS011;10146;47.754;9.566;2023-06-14T07:30:43;7.68;;;4.15;;
19969;SDS011;10146;47.754;9.566;2023-06-14T07:33:08;7.90;;;4.03;;
19969;SDS011;10146;47.754;9.566;2023-06-14T07:35:35;5.45;;;4.15;;
19969;SDS011;10146;47.754;9.566;2023-06-14T07:38:00;5.78;;;4.03;;
19969;SDS011;10146;47.754;9.566;2023-06-14T07:40:26;8.15;;;3.90;;
19969;SDS011;10146;47.754;9.566;2023-06-14T07:42:52;7.40;;;4.20;;
19969;SDS011;10146;47.754;9.566;2023-06-14T07:45:19;5.18;;;3.80;;
19969;SDS011;10146;47.754;9.566;2023-06-14T07:47:45;4.13;;;3.58;;
19969;SDS011;10146;47.754;9.566;2023-06-14T07:50:11;5.18;;;3.60;;
19969;SDS011;10146;47.754;9.566;2023-06-14T07:52:37;4.68;;;3.67;;
19969;SDS011;10146;47.754;9.566;2023-06-14T07:55:03;3.72;;;3.40;;
19969;SDS011;10146;47.754;9.566;2023-06-14T07:57:29;4.57;;;3.50;;
19969;SDS011;10146;47.754;9.566;2023-06-14T07:59:55;4.95;;;3.53;;
19969;SDS011;10146;47.754;9.566;2023-06-14T08:02:20;4.55;;;3.38;;
19969;SDS011;10146;47.754;9.566;2023-06-14T08:04:46;4.35;;;3.33;;
19969;SDS011;10146;47.754;9.566;2023-06-14T08:07:13;6.85;;;3.60;;
19969;SDS011;10146;47.754;9.566;2023-06-14T08:09:39;3.47;;;3.17;;
19969;SDS011;10146;47.754;9.566;2023-06-14T08:12:05;4.88;;;3.53;;
19969;SDS011;10146;47.754;9.566;2023-06-14T08:14:34;5.38;;;3.72;;
19969;SDS011;10146;47.754;9.566;2023-06-14T08:17:00;5.90;;;3.75;;
19969;SDS011;10146;47.754;9.566;2023-06-14T08:19:25;5.05;;;3.58;;
19969;SDS011;10146;47.754;9.566;2023-06-14T08:21:51;4.72;;;3.70;;
19969;SDS011;10146;47.754;9.566;2023-06-14T08:24:20;4.93;;;3.90;;
19969;SDS011;10146;47.754;9.566;2023-06-14T08:26:49;4.88;;;3.17;;
19969;SDS011;10146;47.754;9.566;2023-06-14T08:29:15;5.90;;;3.55;;
19969;SDS011;10146;47.754;9.566;2023-06-14T08:31:40;4.38;;;3.10;;
19969;SDS011;10146;47.754;9.566;2023-06-14T08:34:06;4.90;;;2.95;;
19969;SDS011;10146;47.754;9.566;2023-06-14T08:36:32;3.47;;;2.97;;
19969;SDS011;10146;47.754;9.566;2023-06-14T08:38:57;3.72;;;3.30;;
19969;SDS011;10146;47.754;9.566;2023-06-14T08:41:23;4.10;;;3.60;;
19969;SDS011;10146;47.754;9.566;2023-06-14T08:43:52;6.50;;;3.17;;
19969;SDS011;10146;47.754;9.566;2023-06-14T08:46:18;4.55;;;3.30;;
19969;SDS011;10146;47.754;9.566;2023-06-14T08:48:50;5.00;;;3.47;;
19969;SDS011;10146;47.754;9.566;2023-06-14T08:51:21;8.27;;;3.53;;
19969;SDS011;10146;47.754;9.566;2023-06-14T08:53:57;5.53;;;3.38;;
19969;SDS011;10146;47.754;9.566;2023-06-14T08:56:26;6.65;;;3.17;;
19969;SDS011;10146;47.754;9.566;2023-06-14T08:58:55;7.07;;;3.15;;
19969;SDS011;10146;47.754;9.566;2023-06-14T09:01:28;4.50;;;3.25;;
19969;SDS011;10146;47.754;9.566;2023-06-14T09:03:56;4.22;;;3.13;;
19969;SDS011;10146;47.754;9.566;2023-06-14T09:06:22;4.72;;;3.42;;
19969;SDS011;10146;47.754;9.566;2023-06-14T09:08:49;4.25;;;3.05;;
19969;SDS011;10146;47.754;9.566;2023-06-14T09:11:16;3.63;;;3.22;;
19969;SDS011;10146;47.754;9.566;2023-06-14T09:13:44;4.72;;;3.00;;
19969;SDS011;10146;47.754;9.566;2023-06-14T09:16:10;5.30;;;3.47;;
19969;SDS011;10146;47.754;9.566;2023-06-14T09:18:37;5.13;;;3.03;;
19969;SDS011;10146;47.754;9.566;2023-06-14T09:21:09;4.32;;;3.22;;
19969;SDS011;10146;47.754;9.566;2023-06-14T09:23:46;6.97;;;3.53;;
19969;SDS011;10146;47.754;9.566;2023-06-14T09:26:15;6.07;;;3.63;;
19969;SDS011;10146;47.754;9.566;2023-06-14T09:28:46;5.20;;;3.05;;
19969;SDS011;10146;47.754;9.566;2023-06-14T09:31:13;4.10;;;3.58;;
19969;SDS011;10146;47.754;9.566;2023-06-14T09:33:43;4.90;;;3.33;;
19969;SDS011;10146;47.754;9.566;2023-06-14T09:36:14;5.07;;;3.30;;
19969;SDS011;10146;47.754;9.566;2023-06-14T09:38:53;5.10;;;3.35;;
19969;SDS011;10146;47.754;9.566;2023-06-14T09:41:20;6.30;;;3.28;;
19969;SDS011;10146;47.754;9.566;2023-06-14T09:44:03;4.30;;;3.25;;
19969;SDS011;10146;47.754;9.566;2023-06-14T09:46:30;4.85;;;3.50;;
19969;SDS011;10146;47.754;9.566;2023-06-14T09:48:59;5.25;;;3.60;;
19969;SDS011;10146;47.754;9.566;2023-06-14T09:51:26;5.20;;;3.22;;
19969;SDS011;10146;47.754;9.566;2023-06-14T09:53:55;4.18;;;3.35;;
19969;SDS011;10146;47.754;9.566;2023-06-14T09:56:31;4.03;;;3.72;;
19969;SDS011;10146;47.754;9.566;2023-06-14T09:58:59;3.70;;;3.25;;
19969;SDS011;10146;47.754;9.566;2023-06-14T10:01:30;3.97;;;3.60;;
19969;SDS011;10146;47.754;9.566;2023-06-14T10:04:01;5.53;;;4.10;;
19969;SDS011;10146;47.754;9.566;2023-06-14T10:06:29;6.88;;;3.50;;
19969;SDS011;10146;47.754;9.566;2023-06-14T10:08:59;5.15;;;3.40;;
19969;SDS011;10146;47.754;9.566;2023-06-14T10:11:26;3.83;;;3.45;;
19969;SDS011;10146;47.754;9.566;2023-06-14T10:13:53;7.75;;;3.38;;
19969;SDS011;10146;47.754;9.566;2023-06-14T10:16:22;5.57;;;3.17;;
19969;SDS011;10146;47.754;9.566;2023-06-14T10:19:04;4.10;;;3.70;;
19969;SDS011;10146;47.754;9.566;2023-06-14T10:24:42;3.72;;;3.03;;
19969;SDS011;10146;47.754;9.566;2023-06-14T10:27:09;4.30;;;3.60;;
19969;SDS011;10146;47.754;9.566;2023-06-14T10:32:18;3.47;;;3.17;;
19969;SDS011;10146;47.754;9.566;2023-06-14T10:34:45;4.50;;;3.78;;
19969;SDS011;10146;47.754;9.566;2023-06-14T10:37:18;4.57;;;4.10;;
19969;SDS011;10146;47.754;9.566;2023-06-14T10:39:44;3.95;;;3.55;;
19969;SDS011;10146;47.754;9.566;2023-06-14T10:42:14;3.80;;;3.50;;
19969;SDS011;10146;47.754;9.566;2023-06-14T10:44:44;5.88;;;3.55;;
19969;SDS011;10146;47.754;9.566;2023-06-14T10:47:21;6.30;;;3.42;;
19969;SDS011;10146;47.754;9.566;2023-06-14T10:49:50;6.45;;;3.63;;
19969;SDS011;10146;47.754;9.566;2023-06-14T10:52:20;4.53;;;3.75;;
19969;SDS011;10146;47.754;9.566;2023-06-14T10:57:35;4.30;;;3.60;;
19969;SDS011;10146;47.754;9.566;2023-06-14T11:00:02;3.53;;;3.22;;
19969;SDS011;10146;47.754;9.566;2023-06-14T11:02:46;4.40;;;3.50;;
19969;SDS011;10146;47.754;9.566;2023-06-14T11:05:16;4.07;;;3.50;;
19969;SDS011;10146;47.754;9.566;2023-06-14T11:11:01;4.50;;;3.60;;
19969;SDS011;10146;47.754;9.566;2023-06-14T11:13:31;8.27;;;3.65;;
19969;SDS011;10146;47.754;9.566;2023-06-14T11:15:57;4.35;;;3.85;;
19969;SDS011;10146;47.754;9.566;2023-06-14T11:18:23;4.68;;;3.47;;
19969;SDS011;10146;47.754;9.566;2023-06-14T11:20:55;3.80;;;3.50;;
19969;SDS011;10146;47.754;9.566;2023-06-14T11:23:21;4.85;;;3.95;;
19969;SDS011;10146;47.754;9.566;2023-06-14T11:25:51;6.13;;;4.13;;
19969;SDS011;10146;47.754;9.566;2023-06-14T11:28:17;4.35;;;3.35;;
19969;SDS011;10146;47.754;9.566;2023-06-14T11:30:44;5.10;;;3.50;;
19969;SDS011;10146;47.754;9.566;2023-06-14T11:33:11;3.70;;;3.35;;
19969;SDS011;10146;47.754;9.566;2023-06-14T11:35:42;7.60;;;4.07;;
19969;SDS011;10146;47.754;9.566;2023-06-14T11:38:07;6.47;;;3.97;;
19969;SDS011;10146;47.754;9.566;2023-06-14T11:40:37;4.22;;;3.83;;
19969;SDS011;10146;47.754;9.566;2023-06-14T11:43:03;4.90;;;4.47;;
19969;SDS011;10146;47.754;9.566;2023-06-14T11:45:29;3.28;;;3.08;;
19969;SDS011;10146;47.754;9.566;2023-06-14T11:47:56;4.28;;;3.88;;
19969;SDS011;10146;47.754;9.566;2023-06-14T11:50:23;5.47;;;3.50;;
19969;SDS011;10146;47.754;9.566;2023-06-14T11:52:55;3.78;;;3.47;;
19969;SDS011;10146;47.754;9.566;2023-06-14T11:55:22;5.47;;;3.55;;
19969;SDS011;10146;47.754;9.566;2023-06-14T11:57:49;4.40;;;3.42;;
19969;SDS011;10146;47.754;9.566;2023-06-14T12:00:15;4.78;;;3.05;;
19969;SDS011;10146;47.754;9.566;2023-06-14T12:02:42;6.03;;;3.40;;
19969;SDS011;10146;47.754;9.566;2023-06-14T12:05:08;3.72;;;3.17;;
19969;SDS011;10146;47.754;9.566;2023-06-14T12:07:36;3.90;;;3.20;;
19969;SDS011;10146;47.754;9.566;2023-06-14T12:12:30;4.60;;;3.60;;
19969;SDS011;10146;47.754;9.566;2023-06-14T12:14:56;3.90;;;3.30;;
19969;SDS011;10146;47.754;9.566;2023-06-14T12:17:21;4.15;;;3.40;;
19969;SDS011;10146;47.754;9.566;2023-06-14T12:19:48;6.85;;;3.53;;
19969;SDS011;10146;47.754;9.566;2023-06-14T12:22:15;3.67;;;3.35;;
19969;SDS011;10146;47.754;9.566;2023-06-14T12:24:45;6.68;;;3.75;;
19969;SDS011;10146;47.754;9.566;2023-06-14T12:27:11;5.13;;;3.47;;
19969;SDS011;10146;47.754;9.566;2023-06-14T12:29:40;3.97;;;3.50;;
19969;SDS011;10146;47.754;9.566;2023-06-14T12:32:09;4.53;;;3.50;;
19969;SDS011;10146;47.754;9.566;2023-06-14T12:34:35;3.47;;;3.20;;
19969;SDS011;10146;47.754;9.566;2023-06-14T12:37:01;4.50;;;3.15;;
19969;SDS011;10146;47.754;9.566;2023-06-14T12:39:29;4.45;;;3.05;;
19969;SDS011;10146;47.754;9.566;2023-06-14T12:41:56;4.15;;;3.10;;
19969;SDS011;10146;47.754;9.566;2023-06-14T12:44:22;3.55;;;3.25;;
19969;SDS011;10146;47.754;9.566;2023-06-14T12:46:48;5.35;;;3.00;;
19969;SDS011;10146;47.754;9.566;2023-06-14T12:49:16;4.20;;;3.10;;
19969;SDS011;10146;47.754;9.566;2023-06-14T12:51:42;3.83;;;3.30;;
19969;SDS011;10146;47.754;9.566;2023-06-14T12:54:07;7.28;;;3.50;;
19969;SDS011;10146;47.754;9.566;2023-06-14T12:56:33;4.40;;;3.10;;
19969;SDS011;10146;47.754;9.566;2023-06-14T12:58:59;4.00;;;3.38;;
19969;SDS011;10146;47.754;9.566;2023-06-14T13:01:25;4.63;;;3.28;;
19969;SDS011;10146;47.754;9.566;2023-06-14T13:03:51;3.13;;;2.90;;
19969;SDS011;10146;47.754;9.566;2023-06-14T13:06:20;5.22;;;3.38;;
19969;SDS011;10146;47.754;9.566;2023-06-14T13:08:46;5.53;;;3.00;;
19969;SDS011;10146;47.754;9.566;2023-06-14T13:11:12;4.97;;;3.55;;
19969;SDS011;10146;47.754;9.566;2023-06-14T13:13:37;8.10;;;3.47;;
19969;SDS011;10146;47.754;9.566;2023-06-14T13:16:03;3.97;;;3.55;;
19969;SDS011;10146;47.754;9.566;2023-06-14T13:18:29;7.35;;;3.28;;
19969;SDS011;10146;47.754;9.566;2023-06-14T13:20:54;3.50;;;3.20;;
19969;SDS011;10146;47.754;9.566;2023-06-14T13:23:20;4.45;;;3.38;;
19969;SDS011;10146;47.754;9.566;2023-06-14T13:25:45;4.25;;;3.85;;
19969;SDS011;10146;47.754;9.566;2023-06-14T13:28:11;3.50;;;3.20;;
19969;SDS011;10146;47.754;9.566;2023-06-14T13:30:37;3.80;;;3.20;;
19969;SDS011;10146;47.754;9.566;2023-06-14T13:33:02;3.78;;;3.00;;
19969;SDS011;10146;47.754;9.566;2023-06-14T13:35:28;3.78;;;3.30;;
19969;SDS011;10146;47.754;9.566;2023-06-14T13:37:54;6.97;;;3.42;;
19969;SDS011;10146;47.754;9.566;2023-06-14T13:40:19;5.15;;;3.00;;
19969;SDS011;10146;47.754;9.566;2023-06-14T13:42:46;5.38;;;3.25;;
19969;SDS011;10146;47.754;9.566;2023-06-14T13:45:12;5.18;;;3.40;;
19969;SDS011;10146;47.754;9.566;2023-06-14T13:47:38;4.10;;;2.90;;
19969;SDS011;10146;47.754;9.566;2023-06-14T13:50:04;3.47;;;3.17;;
19969;SDS011;10146;47.754;9.566;2023-06-14T13:52:30;4.85;;;3.13;;
19969;SDS011;10146;47.754;9.566;2023-06-14T13:54:55;4.22;;;3.25;;
19969;SDS011;10146;47.754;9.566;2023-06-14T13:57:21;4.25;;;3.30;;
19969;SDS011;10146;47.754;9.566;2023-06-14T13:59:47;3.20;;;2.90;;
19969;SDS011;10146;47.754;9.566;2023-06-14T14:02:13;3.28;;;2.97;;
19969;SDS011;10146;47.754;9.566;2023-06-14T14:04:39;3.50;;;3.20;;
19969;SDS011;10146;47.754;9.566;2023-06-14T14:07:06;5.18;;;3.42;;
19969;SDS011;10146;47.754;9.566;2023-06-14T14:09:32;3.28;;;2.97;;
19969;SDS011;10146;47.754;9.566;2023-06-14T14:11:59;5.88;;;3.22;;
19969;SDS011;10146;47.754;9.566;2023-06-14T14:14:25;3.55;;;3.25;;
19969;SDS011;10146;47.754;9.566;2023-06-14T14:16:52;3.17;;;2.97;;
19969;SDS011;10146;47.754;9.566;2023-06-14T14:19:19;4.72;;;2.95;;
19969;SDS011;10146;47.754;9.566;2023-06-14T14:21:46;6.22;;;3.00;;
19969;SDS011;10146;47.754;9.566;2023-06-14T14:24:11;6.05;;;3.20;;
19969;SDS011;10146;47.754;9.566;2023-06-14T14:26:38;6.60;;;3.10;;
19969;SDS011;10146;47.754;9.566;2023-06-14T14:29:03;3.30;;;3.00;;
19969;SDS011;10146;47.754;9.566;2023-06-14T14:31:29;5.20;;;3.33;;
19969;SDS011;10146;47.754;9.566;2023-06-14T14:33:55;5.13;;;3.25;;
19969;SDS011;10146;47.754;9.566;2023-06-14T14:36:20;6.20;;;3.60;;
19969;SDS011;10146;47.754;9.566;2023-06-14T14:38:46;3.92;;;3.63;;
19969;SDS011;10146;47.754;9.566;2023-06-14T14:41:12;3.40;;;3.10;;
19969;SDS011;10146;47.754;9.566;2023-06-14T14:43:38;5.15;;;3.10;;
19969;SDS011;10146;47.754;9.566;2023-06-14T14:46:03;3.65;;;3.25;;
19969;SDS011;10146;47.754;9.566;2023-06-14T14:48:29;3.50;;;3.17;;
19969;SDS011;10146;47.754;9.566;2023-06-14T14:50:55;6.45;;;3.60;;
19969;SDS011;10146;47.754;9.566;2023-06-14T14:53:20;5.35;;;3.22;;
19969;SDS011;10146;47.754;9.566;2023-06-14T14:55:46;5.72;;;3.40;;
19969;SDS011;10146;47.754;9.566;2023-06-14T14:58:12;5.47;;;3.30;;
19969;SDS011;10146;47.754;9.566;2023-06-14T15:00:39;4.97;;;3.50;;
19969;SDS011;10146;47.754;9.566;2023-06-14T15:03:05;4.45;;;3.35;;
19969;SDS011;10146;47.754;9.566;2023-06-14T15:05:30;3.53;;;3.10;;